Time;durP1;ratioP1;P1;durP2;ratioP2;P2;SDS_P1;SDS_P2;PMS_P1;PMS_P2;Temp;Humidity;BMP_temperature;BMP_pressure;BME280_temperature;BME280_humidity;BME280_pressure;Samples;Min_cycle;Max_cycle;Signal;HPM_P1;HPM_P2
2022/01/18 00:00:27;;;;;;;46.10;7.90;;;7.60;99.90;;;;;;4978190;28;20055;-59
2022/01/18 00:02:54;;;;;;;47.72;10.02;;;7.60;99.90;;;;;;4945037;28;20109;-59
2022/01/18 00:05:20;;;;;;;39.42;9.65;;;7.60;99.90;;;;;;4957337;28;20043;-58
2022/01/18 00:07:47;;;;;;;58.30;9.10;;;7.60;99.90;;;;;;4935726;28;20449;-59
2022/01/18 00:10:14;;;;;;;50.83;8.75;;;7.60;99.90;;;;;;4955647;28;20506;-58
2022/01/18 00:18:04;;;;;;;65.57;10.32;;;7.60;99.90;;;;;;4947057;28;20057;-58
2022/01/18 00:23:11;;;;;;;65.50;10.35;;;7.50;99.90;;;;;;4946427;28;20118;-58
2022/01/18 00:25:41;;;;;;;46.30;10.02;;;7.40;99.90;;;;;;4947697;28;20047;-58
2022/01/18 00:28:07;;;;;;;56.13;11.05;;;7.40;99.90;;;;;;4958895;28;20112;-58
2022/01/18 00:36:36;;;;;;;60.50;10.80;;;7.30;99.90;;;;;;5018827;28;20546;-58
2022/01/18 00:39:05;;;;;;;48.88;10.27;;;7.30;99.90;;;;;;4961807;28;20569;-58
2022/01/18 00:41:31;;;;;;;49.00;9.75;;;7.30;99.90;;;;;;4953059;28;20046;-58
2022/01/18 00:43:58;;;;;;;57.45;8.90;;;7.20;99.90;;;;;;4950081;28;20046;-63
2022/01/18 00:46:24;;;;;;;47.42;8.57;;;7.30;99.90;;;;;;4951943;28;20043;-59
2022/01/18 00:48:56;;;;;;;45.22;8.70;;;7.20;99.90;;;;;;4951797;28;20868;-58
2022/01/18 00:51:22;;;;;;;39.15;9.98;;;7.20;99.90;;;;;;4961449;28;20392;-63
2022/01/18 00:53:49;;;;;;;46.40;9.02;;;7.20;99.90;;;;;;4935230;28;20047;-63
2022/01/18 00:56:21;;;;;;;49.83;7.93;;;7.20;99.90;;;;;;4953468;28;20521;-63
2022/01/18 00:58:50;;;;;;;;;;;7.10;99.90;;;;;;4958110;28;20069;-64
2022/01/18 01:01:18;;;;;;;45.85;9.05;;;7.20;99.90;;;;;;4959607;28;19975;-64
2022/01/18 01:03:44;;;;;;;53.65;8.80;;;7.10;99.90;;;;;;4930633;28;20554;-63
2022/01/18 01:06:11;;;;;;;43.20;8.10;;;7.10;99.90;;;;;;4976438;28;20577;-63
2022/01/18 01:08:37;;;;;;;47.70;8.82;;;7.10;99.90;;;;;;4965243;28;20054;-58
2022/01/18 01:11:05;;;;;;;60.83;9.75;;;7.10;99.90;;;;;;4940932;29;20054;-58
2022/01/18 01:13:32;;;;;;;61.35;10.40;;;7.00;99.90;;;;;;4979625;28;20510;-58
2022/01/18 01:16:24;;;;;;;54.00;9.52;;;7.00;99.90;;;;;;4946361;29;20134;-64
2022/01/18 01:43:48;;;;;;;54.72;10.50;;;6.70;99.90;;;;;;4949961;28;20108;-58
2022/01/18 01:46:17;;;;;;;55.22;11.32;;;6.60;99.90;;;;;;4946077;28;20048;-58
2022/01/18 01:48:46;;;;;;;51.08;10.10;;;6.60;99.90;;;;;;4952005;28;20049;-59
2022/01/18 01:51:12;;;;;;;49.90;11.55;;;6.60;99.90;;;;;;4959578;28;20043;-58
2022/01/18 01:53:41;;;;;;;55.00;10.85;;;6.60;99.90;;;;;;4950181;28;20070;-58
2022/01/18 01:56:07;;;;;;;55.20;11.50;;;6.60;99.90;;;;;;4957725;28;20409;-58
2022/01/18 01:58:33;;;;;;;47.08;10.77;;;6.60;99.90;;;;;;4958434;28;20043;-58
2022/01/18 02:01:06;;;;;;;51.30;9.95;;;6.60;99.90;;;;;;4947198;28;20067;-58
2022/01/18 02:03:32;;;;;;;53.97;10.18;;;6.60;99.90;;;;;;4953360;28;20047;-59
2022/01/18 02:05:59;;;;;;;50.55;10.85;;;6.60;99.90;;;;;;4956580;28;20835;-58
2022/01/18 02:08:25;;;;;;;54.05;10.43;;;6.60;99.90;;;;;;4955055;28;20589;-59
2022/01/18 02:10:51;;;;;;;48.10;9.98;;;6.50;99.90;;;;;;4959564;28;20423;-59
2022/01/18 02:13:17;;;;;;;49.10;12.60;;;6.60;99.90;;;;;;4937134;29;20134;-59
2022/01/18 02:24:08;;;;;;;50.10;10.57;;;6.50;99.90;;;;;;4947675;28;20050;-58
2022/01/18 02:26:35;;;;;;;51.08;11.35;;;6.50;99.90;;;;;;4945379;28;20485;-59
2022/01/18 02:29:04;;;;;;;42.78;9.45;;;6.60;99.90;;;;;;4948621;28;20082;-59
2022/01/18 02:31:31;;;;;;;48.50;11.13;;;6.50;99.90;;;;;;4946780;28;20373;-59
2022/01/18 02:34:05;;;;;;;59.00;11.65;;;6.50;99.90;;;;;;4950649;28;20552;-59
2022/01/18 02:36:32;;;;;;;47.65;10.98;;;6.50;99.90;;;;;;4947230;28;20086;-59
2022/01/18 02:38:59;;;;;;;48.42;10.07;;;6.50;99.90;;;;;;4951996;28;20051;-59
2022/01/18 02:41:30;;;;;;;56.95;12.32;;;6.50;99.90;;;;;;4943032;28;20059;-59
2022/01/18 02:43:58;;;;;;;56.00;11.23;;;6.50;99.90;;;;;;4949991;28;20073;-59
2022/01/18 02:46:24;;;;;;;43.63;11.23;;;6.60;99.90;;;;;;4950661;28;20050;-59
2022/01/18 02:48:51;;;;;;;54.05;12.13;;;6.50;99.90;;;;;;4946182;28;20046;-59
2022/01/18 02:51:17;;;;;;;55.75;12.20;;;6.50;99.90;;;;;;4939758;28;20054;-59
2022/01/18 02:53:57;;;;;;;60.25;12.85;;;6.50;99.90;;;;;;4961650;28;20056;-59
2022/01/18 02:56:30;;;;;;;50.28;11.65;;;6.50;99.90;;;;;;4954119;28;20046;-58
2022/01/18 02:59:05;;;;;;;49.70;11.10;;;6.50;99.90;;;;;;4959530;28;20047;-59
2022/01/18 03:04:16;;;;;;;51.20;11.70;;;6.50;99.90;;;;;;4952398;28;20054;-60
2022/01/18 03:06:43;;;;;;;52.85;11.65;;;6.60;99.90;;;;;;4987362;28;20051;-59
2022/01/18 03:09:09;;;;;;;50.85;11.40;;;6.60;99.90;;;;;;4955211;28;20501;-59
2022/01/18 03:11:35;;;;;;;61.90;13.07;;;6.60;99.90;;;;;;4970510;28;20119;-59
2022/01/18 03:14:02;;;;;;;74.70;14.73;;;6.60;99.90;;;;;;4944648;28;20046;-59
2022/01/18 03:16:28;;;;;;;66.13;12.57;;;6.60;99.90;;;;;;4954415;28;20392;-59
2022/01/18 03:18:54;;;;;;;67.13;13.57;;;6.60;99.90;;;;;;4962201;28;20646;-59
2022/01/18 03:21:20;;;;;;;54.47;11.30;;;6.60;99.90;;;;;;4943552;28;20096;-59
2022/01/18 03:23:54;;;;;;;57.63;11.85;;;6.60;99.90;;;;;;4962364;28;20397;-59
2022/01/18 03:26:30;;;;;;;46.95;10.70;;;6.50;99.90;;;;;;4947780;28;20453;-59
2022/01/18 03:28:56;;;;;;;44.33;10.65;;;6.50;99.90;;;;;;4962515;28;20039;-59
2022/01/18 03:31:22;;;;;;;36.08;9.48;;;6.50;99.90;;;;;;4946307;28;20050;-59
2022/01/18 03:33:48;;;;;;;49.15;9.23;;;6.50;99.90;;;;;;4948065;28;20070;-59
2022/01/18 03:36:15;;;;;;;38.53;8.45;;;6.50;99.90;;;;;;4956430;28;20043;-59
2022/01/18 03:38:41;;;;;;;41.13;9.02;;;6.50;99.90;;;;;;4976516;28;20101;-59
2022/01/18 03:41:07;;;;;;;37.00;9.20;;;6.60;99.90;;;;;;4968763;28;20051;-59
2022/01/18 03:43:38;;;;;;;45.30;9.35;;;6.50;99.90;;;;;;4970223;28;20194;-59
2022/01/18 03:46:05;;;;;;;42.42;9.25;;;6.60;99.90;;;;;;4946706;28;20057;-59
2022/01/18 03:48:35;;;;;;;30.42;7.80;;;6.60;99.90;;;;;;4984541;28;20321;-59
2022/01/18 03:51:03;;;;;;;37.55;8.40;;;6.60;99.90;;;;;;4969337;28;20435;-59
2022/01/18 03:53:29;;;;;;;36.65;7.95;;;6.60;99.90;;;;;;4959339;28;20074;-59
2022/01/18 03:55:56;;;;;;;30.67;6.97;;;6.60;99.90;;;;;;4943425;28;20400;-59
2022/01/18 03:58:23;;;;;;;39.40;7.68;;;6.60;99.90;;;;;;4980243;28;20054;-59
2022/01/18 04:00:50;;;;;;;38.65;7.32;;;6.60;99.90;;;;;;4963183;28;20047;-59
2022/01/18 04:03:17;;;;;;;28.33;6.32;;;6.60;99.90;;;;;;4959572;28;20047;-59
2022/01/18 04:05:43;;;;;;;30.02;7.15;;;6.60;99.90;;;;;;4988128;28;20047;-59
2022/01/18 04:08:09;;;;;;;32.22;7.25;;;6.60;99.90;;;;;;4937472;28;20052;-59
2022/01/18 04:10:36;;;;;;;28.48;7.15;;;6.70;99.90;;;;;;4927938;28;20055;-59
2022/01/18 04:13:02;;;;;;;31.88;6.35;;;6.70;99.90;;;;;;4975903;28;20055;-59
2022/01/18 04:15:31;;;;;;;29.25;6.93;;;6.70;99.90;;;;;;4948434;28;20054;-59
2022/01/18 04:26:03;;;;;;;25.48;5.90;;;6.70;99.90;;;;;;4962111;28;20400;-59
2022/01/18 04:28:37;;;;;;;33.30;6.97;;;6.70;99.90;;;;;;4945933;28;20047;-59
2022/01/18 04:31:05;;;;;;;25.10;5.88;;;6.70;99.90;;;;;;4932791;28;20130;-64
2022/01/18 04:33:32;;;;;;;19.98;5.55;;;6.70;99.90;;;;;;4945920;28;20130;-59
2022/01/18 04:35:59;;;;;;;33.97;6.55;;;6.80;99.90;;;;;;4960237;28;20051;-64
2022/01/18 04:38:26;;;;;;;33.78;6.38;;;6.70;99.90;;;;;;4952220;28;20122;-59
2022/01/18 04:40:52;;;;;;;23.92;6.05;;;6.70;99.90;;;;;;4954950;28;20529;-59
2022/01/18 04:43:26;;;;;;;27.02;6.63;;;6.70;99.90;;;;;;4981822;28;20371;-64
2022/01/18 04:48:37;;;;;;;28.48;7.35;;;6.70;99.90;;;;;;4958385;28;20136;-59
2022/01/18 04:51:09;;;;;;;23.17;6.57;;;6.70;99.90;;;;;;4950641;28;20054;-59
2022/01/18 04:53:41;;;;;;;29.20;6.15;;;6.70;99.90;;;;;;4963658;28;20161;-64
2022/01/18 04:56:13;;;;;;;;;;;6.70;99.90;;;;;;4971534;28;20439;-64
2022/01/18 04:58:40;;;;;;;23.63;5.43;;;6.60;99.90;;;;;;4964605;28;20269;-58
2022/01/18 05:01:07;;;;;;;24.40;5.85;;;6.60;99.90;;;;;;4966463;28;20061;-58
2022/01/18 05:03:34;;;;;;;20.17;5.20;;;6.60;99.90;;;;;;4960162;28;20200;-58
2022/01/18 05:06:07;;;;;;;26.45;6.43;;;6.60;99.90;;;;;;4959840;28;20116;-59
2022/01/18 05:08:37;;;;;;;24.92;5.18;;;6.50;99.90;;;;;;4944250;28;20292;-59
2022/01/18 05:11:06;;;;;;;26.95;5.25;;;6.60;99.90;;;;;;4979473;28;20070;-59
2022/01/18 05:19:06;;;;;;;23.83;5.05;;;6.60;99.90;;;;;;4924753;28;20160;-59
2022/01/18 05:24:26;;;;;;;22.58;5.25;;;6.50;99.90;;;;;;4955685;28;20047;-58
2022/01/18 05:26:53;;;;;;;20.50;4.65;;;6.50;99.90;;;;;;4946943;28;20047;-59
2022/01/18 05:29:20;;;;;;;20.13;5.13;;;6.50;99.90;;;;;;4979686;28;20108;-60
2022/01/18 05:31:47;;;;;;;21.45;4.63;;;6.50;99.90;;;;;;4963770;28;20058;-59
2022/01/18 05:34:13;;;;;;;25.08;4.63;;;6.50;99.90;;;;;;4945849;28;20063;-59
2022/01/18 05:36:40;;;;;;;22.83;4.75;;;6.50;99.90;;;;;;4960723;28;20050;-59
2022/01/18 05:39:09;;;;;;;23.10;4.68;;;6.50;99.90;;;;;;5025748;28;20240;-64
2022/01/18 05:41:37;;;;;;;22.58;5.13;;;6.50;99.90;;;;;;4964043;28;20414;-64
2022/01/18 05:44:04;;;;;;;22.35;6.07;;;6.50;99.90;;;;;;4961283;28;20460;-64
2022/01/18 05:46:30;;;;;;;20.52;5.22;;;6.50;99.90;;;;;;4939844;28;20047;-64
2022/01/18 05:49:00;;;;;;;20.10;5.10;;;6.50;99.90;;;;;;4965388;28;20513;-64
2022/01/18 05:51:31;;;;;;;19.20;4.88;;;6.50;99.90;;;;;;4958398;28;20043;-64
2022/01/18 05:53:57;;;;;;;21.35;5.75;;;6.50;99.90;;;;;;4948908;28;20047;-64
2022/01/18 05:56:24;;;;;;;19.42;5.25;;;6.50;99.90;;;;;;4969550;28;20055;-64
2022/01/18 05:58:50;;;;;;;19.48;5.05;;;6.50;99.90;;;;;;4947810;28;20524;-64
2022/01/18 06:01:32;;;;;;;18.30;4.80;;;6.50;99.90;;;;;;4964517;28;20568;-64
2022/01/18 06:09:10;;;;;;;22.92;5.72;;;6.50;99.90;;;;;;4951063;28;20087;-64
2022/01/18 06:11:36;;;;;;;21.33;5.60;;;6.50;99.90;;;;;;4951471;28;20050;-64
2022/01/18 06:14:02;;;;;;;24.33;5.47;;;6.50;99.90;;;;;;4953699;28;20290;-59
2022/01/18 06:16:28;;;;;;;20.73;6.03;;;6.40;99.90;;;;;;4960821;28;20053;-59
2022/01/18 06:18:55;;;;;;;23.15;5.63;;;6.40;99.90;;;;;;4954913;28;20042;-59
2022/01/18 06:21:21;;;;;;;19.65;5.47;;;6.50;99.90;;;;;;4963723;28;20053;-59
2022/01/18 06:23:47;;;;;;;22.20;6.47;;;6.50;99.90;;;;;;4982006;28;20053;-59
2022/01/18 06:26:15;;;;;;;19.58;5.70;;;6.40;99.90;;;;;;4955044;28;20118;-59
2022/01/18 06:28:43;;;;;;;19.17;6.00;;;6.40;99.90;;;;;;4953138;28;20051;-59
2022/01/18 06:31:09;;;;;;;16.33;5.85;;;6.40;99.90;;;;;;4945432;28;20129;-59
2022/01/18 06:33:35;;;;;;;14.75;5.30;;;6.40;99.90;;;;;;4951108;28;20063;-59
2022/01/18 06:36:02;;;;;;;25.10;6.28;;;6.40;99.90;;;;;;4930632;28;20113;-59
2022/01/18 06:38:29;;;;;;;23.77;6.18;;;6.40;99.90;;;;;;4950490;28;20542;-59
2022/01/18 06:40:55;;;;;;;26.30;6.45;;;6.30;99.90;;;;;;4985511;28;20109;-59
2022/01/18 06:43:21;;;;;;;22.98;5.90;;;6.30;99.90;;;;;;4948636;28;20046;-58
2022/01/18 06:45:47;;;;;;;24.05;5.53;;;6.30;99.90;;;;;;4984877;28;20323;-59
2022/01/18 06:48:14;;;;;;;24.98;5.90;;;6.30;99.90;;;;;;4947670;28;20051;-59
2022/01/18 06:50:40;;;;;;;24.55;5.93;;;6.30;99.90;;;;;;4950918;28;20051;-58
2022/01/18 06:53:06;;;;;;;20.83;6.22;;;6.30;99.90;;;;;;4957645;28;20059;-64
2022/01/18 06:55:32;;;;;;;17.38;6.25;;;6.30;99.90;;;;;;4995942;28;20041;-59
2022/01/18 06:57:59;;;;;;;15.82;4.72;;;6.30;99.90;;;;;;4998077;28;20119;-57
2022/01/18 07:00:25;;;;;;;17.98;5.13;;;6.30;99.90;;;;;;5016265;28;20071;-60
2022/01/18 07:02:51;;;;;;;22.27;5.45;;;6.30;99.90;;;;;;4964818;28;20134;-59
2022/01/18 07:05:17;;;;;;;19.80;7.68;;;6.20;99.90;;;;;;4965040;28;20066;-59
2022/01/18 07:07:47;;;;;;;19.90;6.55;;;6.20;99.90;;;;;;4959191;28;20101;-59
2022/01/18 07:10:14;;;;;;;18.77;5.85;;;6.20;99.90;;;;;;4945235;28;20101;-59
2022/01/18 07:12:40;;;;;;;14.20;5.55;;;6.20;99.90;;;;;;4951544;28;20130;-59
2022/01/18 07:15:07;;;;;;;23.45;6.05;;;6.20;99.90;;;;;;4946254;28;20062;-59
2022/01/18 07:17:34;;;;;;;14.52;5.60;;;6.20;99.90;;;;;;4960179;28;20108;-59
2022/01/18 07:20:01;;;;;;;19.98;5.70;;;6.20;99.90;;;;;;4937813;28;20047;-59
2022/01/18 07:22:27;;;;;;;19.42;6.07;;;6.10;99.90;;;;;;4968503;28;20122;-59
2022/01/18 07:24:57;;;;;;;20.40;6.07;;;6.20;99.90;;;;;;4961976;28;20496;-59
2022/01/18 07:27:23;;;;;;;14.80;6.40;;;6.20;99.90;;;;;;4985179;28;20040;-59
2022/01/18 07:29:50;;;;;;;20.15;6.78;;;6.10;99.90;;;;;;5001931;28;20055;-59
2022/01/18 07:32:17;;;;;;;18.85;6.57;;;6.20;99.90;;;;;;5007956;28;20064;-59
2022/01/18 07:34:52;;;;;;;23.38;7.03;;;6.10;99.90;;;;;;4957134;28;20055;-59
2022/01/18 07:37:20;;;;;;;23.17;7.40;;;6.10;99.90;;;;;;4986235;28;20042;-60
2022/01/18 07:39:48;;;;;;;25.30;8.15;;;6.20;99.90;;;;;;4982927;28;20049;-59
2022/01/18 07:42:16;;;;;;;24.02;8.18;;;6.10;99.90;;;;;;4992999;28;20097;-59
2022/01/18 07:44:43;;;;;;;20.48;6.95;;;6.10;99.90;;;;;;4999481;28;20068;-60
2022/01/18 07:47:09;;;;;;;21.75;6.72;;;6.10;99.90;;;;;;5014255;28;20084;-60
2022/01/18 07:49:35;;;;;;;22.88;6.28;;;6.10;99.90;;;;;;5060489;28;20052;-60
2022/01/18 07:52:02;;;;;;;20.90;7.25;;;6.10;99.90;;;;;;5006224;28;20058;-59
2022/01/18 07:54:28;;;;;;;21.33;6.55;;;6.10;99.90;;;;;;5028424;28;20048;-59
2022/01/18 07:56:54;;;;;;;22.48;7.93;;;6.10;99.90;;;;;;5018139;28;20050;-59
2022/01/18 07:59:20;;;;;;;17.23;7.55;;;6.10;99.90;;;;;;4964284;28;20409;-61
2022/01/18 08:01:47;;;;;;;24.42;7.97;;;6.10;99.90;;;;;;4963938;28;20072;-57
2022/01/18 08:04:13;;;;;;;28.02;8.75;;;6.10;99.90;;;;;;4954036;28;20046;-60
2022/01/18 08:06:40;;;;;;;31.10;9.38;;;6.10;99.90;;;;;;4963592;28;20057;-60
2022/01/18 08:09:06;;;;;;;27.80;9.48;;;6.10;99.90;;;;;;4956246;28;20051;-60
2022/01/18 08:11:32;;;;;;;30.77;10.25;;;6.10;99.90;;;;;;4946540;28;20122;-60
2022/01/18 08:14:01;;;;;;;26.23;9.25;;;6.10;99.90;;;;;;4953369;28;20152;-59
2022/01/18 08:19:02;;;;;;;25.90;9.30;;;6.10;99.90;;;;;;4954621;28;20122;-59
2022/01/18 08:21:28;;;;;;;32.60;10.63;;;6.10;99.90;;;;;;4964019;28;20047;-60
2022/01/18 08:23:55;;;;;;;34.83;10.27;;;6.10;99.90;;;;;;4959099;28;20039;-58
2022/01/18 08:26:21;;;;;;;25.65;9.38;;;6.10;99.90;;;;;;4942417;28;20580;-59
2022/01/18 08:28:47;;;;;;;28.77;9.93;;;6.10;99.90;;;;;;4955521;28;20087;-60
2022/01/18 08:31:14;;;;;;;21.48;9.80;;;6.20;99.90;;;;;;4956001;28;20047;-59
2022/01/18 08:33:40;;;;;;;26.40;10.38;;;6.20;99.90;;;;;;4953979;28;20816;-60
2022/01/18 08:36:07;;;;;;;25.58;9.35;;;6.20;99.90;;;;;;4959750;28;20056;-59
2022/01/18 08:38:34;;;;;;;20.75;8.75;;;6.20;99.90;;;;;;4963645;28;20047;-60
2022/01/18 08:41:01;;;;;;;28.75;10.38;;;6.20;99.90;;;;;;4966490;28;20054;-60
2022/01/18 08:43:31;;;;;;;27.00;9.40;;;6.20;99.90;;;;;;4953100;28;20055;-59
2022/01/18 08:45:59;;;;;;;22.17;8.98;;;6.20;99.90;;;;;;4956787;28;20138;-58
2022/01/18 08:48:25;;;;;;;24.48;9.23;;;6.30;99.90;;;;;;4959472;28;21298;-59
2022/01/18 08:50:51;;;;;;;21.92;9.07;;;6.30;99.90;;;;;;4960728;28;20047;-60
2022/01/18 08:53:17;;;;;;;25.35;9.38;;;6.30;99.90;;;;;;4953046;28;20394;-60
2022/01/18 08:55:43;;;;;;;28.98;10.18;;;6.30;99.90;;;;;;4933906;28;20387;-59
2022/01/18 08:58:09;;;;;;;22.90;9.55;;;6.40;99.90;;;;;;4955151;28;20494;-60
2022/01/18 09:00:36;;;;;;;24.65;9.32;;;6.40;99.90;;;;;;4939088;28;20529;-59
2022/01/18 09:03:02;;;;;;;16.85;7.60;;;6.40;99.90;;;;;;4934479;28;20058;-58
2022/01/18 09:05:28;;;;;;;22.35;9.00;;;6.40;99.90;;;;;;4966274;28;20051;-59
2022/01/18 09:07:56;;;;;;;23.10;9.05;;;6.40;99.90;;;;;;4958614;28;20054;-59
2022/01/18 09:10:25;;;;;;;21.65;9.20;;;6.40;99.90;;;;;;4943832;28;20588;-60
2022/01/18 09:12:52;;;;;;;23.15;9.80;;;6.40;99.90;;;;;;4948993;28;20909;-60
2022/01/18 09:15:18;;;;;;;20.95;8.80;;;6.50;99.90;;;;;;4947598;28;20498;-59
2022/01/18 09:17:45;;;;;;;22.42;9.38;;;6.50;99.90;;;;;;4950579;28;20047;-59
2022/01/18 09:20:13;;;;;;;22.27;9.52;;;6.60;99.90;;;;;;4952728;28;20410;-58
2022/01/18 09:22:43;;;;;;;21.17;9.52;;;6.60;99.90;;;;;;4951278;28;20046;-59
2022/01/18 09:25:13;;;;;;;28.75;9.90;;;6.60;99.90;;;;;;4954925;28;20051;-59
2022/01/18 09:27:40;;;;;;;20.17;9.45;;;6.70;99.90;;;;;;4949092;28;20050;-59
2022/01/18 09:30:07;;;;;;;22.23;9.38;;;6.70;99.90;;;;;;4952795;28;20536;-59
2022/01/18 09:32:33;;;;;;;20.92;9.25;;;6.80;99.90;;;;;;4950039;28;20046;-59
2022/01/18 09:34:59;;;;;;;21.85;9.88;;;6.80;99.90;;;;;;4938646;28;20410;-59
2022/01/18 09:37:25;;;;;;;26.50;9.75;;;6.80;99.90;;;;;;4951779;28;20462;-58
2022/01/18 09:39:53;;;;;;;23.15;9.60;;;6.90;99.90;;;;;;4960026;28;20394;-59
2022/01/18 09:42:20;;;;;;;24.08;10.10;;;7.00;99.90;;;;;;4949985;28;20577;-59
2022/01/18 09:44:47;;;;;;;25.52;10.98;;;7.00;99.90;;;;;;4950672;28;20051;-59
2022/01/18 09:47:14;;;;;;;21.52;9.48;;;6.90;99.90;;;;;;4947568;28;20077;-60
2022/01/18 09:49:40;;;;;;;21.13;9.23;;;6.90;99.90;;;;;;4962611;28;20635;-59
2022/01/18 09:52:07;;;;;;;28.67;9.90;;;6.90;99.90;;;;;;4976168;28;20041;-59
2022/01/18 09:54:33;;;;;;;23.67;10.07;;;7.00;99.90;;;;;;5004398;28;20043;-60
2022/01/18 09:56:59;;;;;;;23.75;9.52;;;7.10;99.90;;;;;;5002949;28;20057;-60
2022/01/18 09:59:25;;;;;;;21.77;9.52;;;7.10;99.90;;;;;;4952359;28;20075;-60
2022/01/18 10:01:52;;;;;;;22.08;10.15;;;7.10;99.90;;;;;;4967073;28;20051;-59
2022/01/18 10:04:25;;;;;;;19.08;9.70;;;7.10;99.90;;;;;;4932484;28;20055;-60
2022/01/18 10:06:55;;;;;;;20.30;9.13;;;7.20;99.90;;;;;;4955542;28;20053;-59
2022/01/18 10:09:24;;;;;;;23.75;10.50;;;7.20;99.90;;;;;;4967514;28;20051;-59
2022/01/18 10:12:13;;;;;;;23.35;9.75;;;7.20;99.90;;;;;;4953607;28;20408;-60
2022/01/18 10:15:00;;;;;;;21.52;9.25;;;7.30;99.90;;;;;;4952127;28;20051;-60
2022/01/18 10:17:37;;;;;;;21.70;9.82;;;7.30;99.90;;;;;;4957112;28;20058;-60
2022/01/18 10:20:21;;;;;;;27.05;11.20;;;7.40;99.90;;;;;;4971236;28;20070;-60
2022/01/18 10:22:49;;;;;;;21.17;9.75;;;7.40;99.90;;;;;;4989951;28;20316;-58
2022/01/18 10:25:18;;;;;;;20.83;9.07;;;7.40;99.90;;;;;;4952155;28;20641;-59
2022/01/18 10:27:47;;;;;;;21.45;9.23;;;7.40;99.90;;;;;;4984970;28;20446;-60
2022/01/18 10:30:21;;;;;;;22.63;10.15;;;7.30;99.90;;;;;;4989430;28;20051;-59
2022/01/18 10:33:16;;;;;;;21.70;11.10;;;7.30;99.90;;;;;;4958458;28;20552;-60
2022/01/18 10:36:11;;;;;;;26.70;11.60;;;7.30;99.90;;;;;;4987400;28;20117;-60
2022/01/18 10:38:43;;;;;;;22.42;12.98;;;7.30;99.90;;;;;;4970688;28;20047;-59
2022/01/18 10:41:23;;;;;;;;;;;7.30;99.90;;;;;;4964881;28;20070;-59
2022/01/18 10:44:03;;;;;;;20.27;9.82;;;7.30;99.90;;;;;;4963261;28;20367;-59
2022/01/18 10:46:37;;;;;;;21.05;9.70;;;7.30;99.90;;;;;;4946125;28;20506;-59
2022/01/18 10:49:05;;;;;;;19.02;8.82;;;7.30;99.90;;;;;;4946571;28;20403;-59
2022/01/18 10:51:34;;;;;;;16.17;7.95;;;7.40;99.90;;;;;;4944139;28;20043;-58
2022/01/18 10:54:11;;;;;;;16.00;8.48;;;7.40;99.90;;;;;;4958778;28;20059;-58
2022/01/18 10:56:42;;;;;;;17.25;8.85;;;7.40;99.90;;;;;;4957111;28;21502;-58
2022/01/18 10:59:24;;;;;;;18.63;8.30;;;7.30;99.90;;;;;;4948248;28;20133;-58
2022/01/18 11:02:19;;;;;;;17.30;8.63;;;7.40;99.90;;;;;;4947064;28;20042;-59
2022/01/18 11:04:51;;;;;;;16.73;8.60;;;7.60;99.90;;;;;;4958740;28;20098;-59
2022/01/18 11:07:25;;;;;;;17.90;8.40;;;7.80;99.90;;;;;;4947731;28;20130;-59
2022/01/18 11:09:52;;;;;;;16.90;7.57;;;7.90;99.90;;;;;;4978076;28;20462;-59
2022/01/18 11:12:20;;;;;;;15.25;8.13;;;7.90;99.90;;;;;;4944784;28;20127;-59
2022/01/18 11:14:51;;;;;;;21.30;8.48;;;7.80;99.90;;;;;;4985250;28;20051;-58
2022/01/18 11:17:24;;;;;;;18.67;7.95;;;7.70;99.90;;;;;;4946380;28;20051;-58
2022/01/18 11:19:54;;;;;;;17.92;7.22;;;7.70;99.90;;;;;;4951020;28;20522;-58
2022/01/18 11:22:24;;;;;;;16.60;5.80;;;7.80;99.90;;;;;;4946016;28;20514;-59
2022/01/18 11:24:51;;;;;;;15.80;5.20;;;7.70;99.90;;;;;;4947769;28;20108;-59
2022/01/18 11:27:18;;;;;;;12.82;3.47;;;7.80;99.90;;;;;;4966899;28;20055;-59
2022/01/18 11:29:49;;;;;;;16.90;4.38;;;7.80;99.90;;;;;;4958641;28;20118;-59
2022/01/18 11:32:17;;;;;;;17.55;6.20;;;7.70;99.90;;;;;;4958087;28;20051;-58
2022/01/18 11:34:55;;;;;;;16.98;4.65;;;7.70;99.90;;;;;;4950181;28;20050;-58
2022/01/18 11:37:26;;;;;;;13.60;4.63;;;7.50;99.90;;;;;;4977855;28;20536;-58
2022/01/18 11:40:00;;;;;;;13.45;3.67;;;7.50;99.90;;;;;;4950789;28;20039;-59
2022/01/18 11:42:40;;;;;;;12.48;3.90;;;7.50;99.90;;;;;;4930144;28;20059;-58
2022/01/18 11:45:25;;;;;;;10.95;4.75;;;7.40;99.90;;;;;;4949386;28;20079;-58
2022/01/18 11:48:20;;;;;;;13.70;4.15;;;7.40;99.90;;;;;;4946519;28;20051;-58
2022/01/18 11:51:01;;;;;;;15.75;4.78;;;7.40;99.90;;;;;;4947432;28;20051;-58
2022/01/18 11:56:09;;;;;;;15.80;4.25;;;7.40;99.90;;;;;;4947987;28;20445;-58
2022/01/18 11:58:35;;;;;;;10.77;4.00;;;7.40;99.90;;;;;;4953180;28;20045;-58
2022/01/18 12:01:03;;;;;;;15.25;4.03;;;7.50;99.90;;;;;;4944949;28;20051;-59
2022/01/18 12:03:45;;;;;;;15.40;4.90;;;7.50;99.90;;;;;;4928791;28;20047;-58
2022/01/18 12:06:12;;;;;;;10.57;3.90;;;7.50;99.90;;;;;;4961334;28;20071;-59
2022/01/18 12:08:39;;;;;;;13.45;4.03;;;7.50;99.90;;;;;;4953402;28;20078;-58
2022/01/18 12:11:19;;;;;;;11.18;4.30;;;7.50;99.90;;;;;;4952443;28;20094;-59
2022/01/18 12:13:47;;;;;;;13.02;4.05;;;7.50;99.90;;;;;;4963470;28;20051;-58
2022/01/18 12:16:19;;;;;;;14.88;3.72;;;7.50;99.90;;;;;;4993319;28;20153;-59
2022/01/18 12:18:51;;;;;;;12.88;4.50;;;7.40;99.90;;;;;;4998523;28;20223;-59
2022/01/18 12:21:21;;;;;;;14.93;4.20;;;7.40;99.90;;;;;;5021033;28;20066;-58
2022/01/18 12:23:48;;;;;;;14.85;4.10;;;7.50;99.90;;;;;;4989874;28;20084;-58
2022/01/18 12:34:49;;;;;;;11.13;3.83;;;7.60;99.90;;;;;;4996527;28;20056;-58
2022/01/18 12:37:20;;;;;;;15.10;3.83;;;7.50;99.90;;;;;;4980394;28;20062;-57
2022/01/18 12:39:57;;;;;;;13.45;3.17;;;7.50;99.90;;;;;;4963965;28;20410;-59
2022/01/18 12:45:17;;;;;;;13.88;3.72;;;7.40;99.90;;;;;;4944866;28;20125;-58
2022/01/18 12:47:50;;;;;;;12.60;3.92;;;7.40;99.90;;;;;;4981992;28;20046;-58
2022/01/18 12:50:22;;;;;;;11.98;3.15;;;7.30;99.90;;;;;;4958455;28;20100;-58
2022/01/18 12:52:51;;;;;;;10.52;3.30;;;7.30;99.90;;;;;;4959260;28;20052;-58
2022/01/18 12:55:47;;;;;;;9.10;3.72;;;7.30;99.90;;;;;;4985283;28;20406;-59
2022/01/18 12:58:16;;;;;;;11.48;4.43;;;7.20;99.90;;;;;;4964995;28;20097;-58
2022/01/18 13:00:48;;;;;;;17.85;4.18;;;7.10;99.90;;;;;;4952124;28;20448;-59
2022/01/18 13:03:21;;;;;;;12.00;4.60;;;7.20;99.90;;;;;;4952292;28;20068;-58
2022/01/18 13:05:48;;;;;;;12.27;3.88;;;7.20;99.90;;;;;;4954613;28;20054;-58
2022/01/18 13:08:20;;;;;;;11.43;4.50;;;7.20;99.90;;;;;;4983073;28;20051;-58
2022/01/18 13:10:47;;;;;;;;;;;7.20;99.90;;;;;;4969428;28;20501;-61
2022/01/18 13:13:19;;;;;;;12.88;4.63;;;7.10;99.90;;;;;;4966517;28;20289;-58
2022/01/18 13:26:49;;;;;;;12.43;5.40;;;7.30;99.90;;;;;;4948316;28;20526;-58
2022/01/18 13:29:23;;;;;;;16.85;6.18;;;7.20;99.90;;;;;;4981624;28;20055;-58
2022/01/18 13:32:09;;;;;;;15.80;6.20;;;7.20;99.90;;;;;;4956932;28;20456;-59
2022/01/18 13:34:40;;;;;;;14.65;6.32;;;7.20;99.90;;;;;;4960763;28;20082;-58
2022/01/18 13:37:11;;;;;;;13.98;6.13;;;7.30;99.90;;;;;;4962292;28;20051;-65
2022/01/18 13:39:40;;;;;;;15.38;6.35;;;7.30;99.90;;;;;;4987246;28;20058;-65
2022/01/18 13:42:10;;;;;;;17.15;6.68;;;7.30;99.90;;;;;;4953743;28;20055;-65
2022/01/18 13:44:38;;;;;;;17.20;5.60;;;7.40;99.90;;;;;;4959607;28;20581;-65
2022/01/18 13:47:19;;;;;;;16.05;5.72;;;7.40;99.90;;;;;;4974837;28;20056;-65
2022/01/18 13:49:46;;;;;;;17.58;6.97;;;7.40;99.90;;;;;;4995818;28;20141;-64
2022/01/18 13:52:13;;;;;;;15.85;6.38;;;7.30;99.90;;;;;;4993392;28;20048;-65
2022/01/18 13:54:50;;;;;;;15.45;5.88;;;7.30;99.90;;;;;;4967040;28;20035;-64
2022/01/18 13:57:21;;;;;;;15.25;7.45;;;7.20;99.90;;;;;;4966976;28;20070;-64
2022/01/18 13:59:49;;;;;;;16.88;7.57;;;7.20;99.90;;;;;;4963974;28;20118;-64
2022/01/18 14:02:22;;;;;;;17.92;8.20;;;7.10;99.90;;;;;;4993225;28;20469;-64
2022/01/18 14:05:07;;;;;;;21.25;8.32;;;7.00;99.90;;;;;;4970864;28;20409;-64
2022/01/18 14:07:33;;;;;;;14.20;7.38;;;7.00;99.90;;;;;;4962224;28;20525;-64
2022/01/18 14:10:00;;;;;;;20.20;7.78;;;7.00;99.90;;;;;;4975985;28;20043;-64
2022/01/18 14:12:31;;;;;;;21.70;8.55;;;7.00;99.90;;;;;;4979646;28;20692;-62
2022/01/18 14:14:58;;;;;;;22.20;8.23;;;7.00;99.90;;;;;;4978308;28;20398;-64
2022/01/18 14:17:24;;;;;;;16.30;7.97;;;7.00;99.90;;;;;;4966634;28;20051;-64
2022/01/18 14:20:05;;;;;;;26.90;7.25;;;6.90;99.90;;;;;;4964353;28;20042;-64
2022/01/18 14:22:38;;;;;;;18.38;7.43;;;6.90;99.90;;;;;;4988008;28;20456;-65
2022/01/18 14:25:07;;;;;;;15.07;7.10;;;7.00;99.90;;;;;;4997371;28;20055;-65
2022/01/18 14:27:41;;;;;;;20.85;8.05;;;7.00;99.90;;;;;;5042879;28;20047;-65
2022/01/18 14:30:18;;;;;;;19.35;7.45;;;7.00;99.90;;;;;;5000862;28;20058;-66
2022/01/18 14:32:49;;;;;;;19.98;8.30;;;7.00;99.90;;;;;;4998314;28;20524;-66
2022/01/18 14:35:21;;;;;;;17.60;7.65;;;6.90;99.90;;;;;;4971453;28;20059;-62
2022/01/18 14:37:49;;;;;;;17.10;7.78;;;7.00;99.90;;;;;;4957850;28;20559;-65